sensor_id;sensor_type;location;lat;lon;timestamp;pressure;altitude;pressure_sealevel;temperature;humidity
23281;BME280;11809;56.390;-3.266;2023-04-22T00:00:16;101192.47;;;16.13;51.11
23281;BME280;11809;56.390;-3.266;2023-04-22T00:02:43;101195.22;;;16.12;51.19
23281;BME280;11809;56.390;-3.266;2023-04-22T00:05:11;101183.16;;;16.06;51.44
23281;BME280;11809;56.390;-3.266;2023-04-22T00:07:43;101186.56;;;16.08;51.14
23281;BME280;11809;56.390;-3.266;2023-04-22T00:10:11;101184.06;;;16.05;51.17
23281;BME280;11809;56.390;-3.266;2023-04-22T00:12:38;101178.94;;;16.02;51.46
23281;BME280;11809;56.390;-3.266;2023-04-22T00:15:05;101176.28;;;16.02;51.38
23281;BME280;11809;56.390;-3.266;2023-04-22T00:17:33;101175.44;;;16.02;51.44
23281;BME280;11809;56.390;-3.266;2023-04-22T00:20:00;101166.69;;;16.00;51.24
23281;BME280;11809;56.390;-3.266;2023-04-22T00:22:27;101161.59;;;15.97;51.45
23281;BME280;11809;56.390;-3.266;2023-04-22T00:24:54;101159.09;;;15.94;51.23
23281;BME280;11809;56.390;-3.266;2023-04-22T00:27:21;101160.91;;;15.93;51.09
23281;BME280;11809;56.390;-3.266;2023-04-22T00:29:48;101157.47;;;15.91;51.34
23281;BME280;11809;56.390;-3.266;2023-04-22T00:32:15;101161.91;;;15.91;51.45
23281;BME280;11809;56.390;-3.266;2023-04-22T00:34:42;101164.63;;;15.89;51.42
23281;BME280;11809;56.390;-3.266;2023-04-22T00:37:09;101151.63;;;15.85;51.52
23281;BME280;11809;56.390;-3.266;2023-04-22T00:39:36;101156.06;;;15.84;51.37
23281;BME280;11809;56.390;-3.266;2023-04-22T00:42:05;101145.63;;;15.81;51.46
23281;BME280;11809;56.390;-3.266;2023-04-22T00:44:34;101135.22;;;15.78;51.48
23281;BME280;11809;56.390;-3.266;2023-04-22T00:47:02;101129.06;;;15.77;51.52
23281;BME280;11809;56.390;-3.266;2023-04-22T00:49:30;101129.13;;;15.76;51.41
23281;BME280;11809;56.390;-3.266;2023-04-22T00:51:57;101120.31;;;15.75;51.78
23281;BME280;11809;56.390;-3.266;2023-04-22T00:54:24;101105.28;;;15.76;51.76
23281;BME280;11809;56.390;-3.266;2023-04-22T00:56:51;101107.16;;;15.74;51.69
23281;BME280;11809;56.390;-3.266;2023-04-22T00:59:19;101103.59;;;15.75;51.73
23281;BME280;11809;56.390;-3.266;2023-04-22T01:01:48;101097.50;;;15.73;51.92
23281;BME280;11809;56.390;-3.266;2023-04-22T01:04:16;101088.78;;;15.71;51.79
23281;BME280;11809;56.390;-3.266;2023-04-22T01:06:44;101094.94;;;15.71;51.70
23281;BME280;11809;56.390;-3.266;2023-04-22T01:09:12;101088.78;;;15.71;51.77
23281;BME280;11809;56.390;-3.266;2023-04-22T01:11:39;101082.72;;;15.69;51.76
23281;BME280;11809;56.390;-3.266;2023-04-22T01:14:06;101082.72;;;15.69;52.03
23281;BME280;11809;56.390;-3.266;2023-04-22T01:16:33;101075.69;;;15.68;51.80
23281;BME280;11809;56.390;-3.266;2023-04-22T01:19:01;101066.88;;;15.67;52.01
23281;BME280;11809;56.390;-3.266;2023-04-22T01:21:28;101063.41;;;15.67;51.96
23281;BME280;11809;56.390;-3.266;2023-04-22T01:24:00;101059.13;;;15.64;51.91
23281;BME280;11809;56.390;-3.266;2023-04-22T01:26:27;101060.91;;;15.64;52.00
23281;BME280;11809;56.390;-3.266;2023-04-22T01:28:54;101052.97;;;15.64;51.97
23281;BME280;11809;56.390;-3.266;2023-04-22T01:31:21;101044.25;;;15.62;52.21
23281;BME280;11809;56.390;-3.266;2023-04-22T01:33:49;101046.91;;;15.62;52.32
23281;BME280;11809;56.390;-3.266;2023-04-22T01:36:16;101046.97;;;15.60;52.13
23281;BME280;11809;56.390;-3.266;2023-04-22T01:38:43;101029.38;;;15.59;52.18
23281;BME280;11809;56.390;-3.266;2023-04-22T01:41:12;101025.00;;;15.58;52.08
23281;BME280;11809;56.390;-3.266;2023-04-22T01:43:40;101025.06;;;15.57;52.13
23281;BME280;11809;56.390;-3.266;2023-04-22T01:46:08;101021.50;;;15.58;52.30
23281;BME280;11809;56.390;-3.266;2023-04-22T01:48:35;101019.78;;;15.57;52.37
23281;BME280;11809;56.390;-3.266;2023-04-22T01:51:02;101021.75;;;15.53;52.45
23281;BME280;11809;56.390;-3.266;2023-04-22T01:53:30;101015.44;;;15.56;52.32
23281;BME280;11809;56.390;-3.266;2023-04-22T01:55:58;101004.06;;;15.54;52.51
23281;BME280;11809;56.390;-3.266;2023-04-22T01:58:28;100997.97;;;15.52;52.54
23281;BME280;11809;56.390;-3.266;2023-04-22T02:00:55;101004.25;;;15.51;52.48
23281;BME280;11809;56.390;-3.266;2023-04-22T02:03:22;100998.94;;;15.51;52.34
23281;BME280;11809;56.390;-3.266;2023-04-22T02:05:49;100999.88;;;15.50;52.64
23281;BME280;11809;56.390;-3.266;2023-04-22T02:08:16;100983.22;;;15.48;52.70
23281;BME280;11809;56.390;-3.266;2023-04-22T02:10:43;100978.78;;;15.48;52.48
23281;BME280;11809;56.390;-3.266;2023-04-22T02:13:10;100978.84;;;15.47;52.47
23281;BME280;11809;56.390;-3.266;2023-04-22T02:15:37;100971.84;;;15.46;52.63
23281;BME280;11809;56.390;-3.266;2023-04-22T02:18:06;100970.91;;;15.47;52.64
23281;BME280;11809;56.390;-3.266;2023-04-22T02:20:36;100956.00;;;15.44;52.65
23281;BME280;11809;56.390;-3.266;2023-04-22T02:23:03;100958.66;;;15.44;52.96
23281;BME280;11809;56.390;-3.266;2023-04-22T02:25:30;100954.47;;;15.40;52.86
23281;BME280;11809;56.390;-3.266;2023-04-22T02:27:58;100958.75;;;15.43;52.90
23281;BME280;11809;56.390;-3.266;2023-04-22T02:30:25;100955.34;;;15.41;52.79
23281;BME280;11809;56.390;-3.266;2023-04-22T02:32:52;100950.97;;;15.40;52.85
23281;BME280;11809;56.390;-3.266;2023-04-22T02:35:19;100946.59;;;15.39;52.90
23281;BME280;11809;56.390;-3.266;2023-04-22T02:37:46;100936.84;;;15.39;53.13
23281;BME280;11809;56.390;-3.266;2023-04-22T02:40:13;100935.06;;;15.40;52.89
23281;BME280;11809;56.390;-3.266;2023-04-22T02:42:40;100927.13;;;15.40;53.08
23281;BME280;11809;56.390;-3.266;2023-04-22T02:45:07;100919.25;;;15.38;52.89
23281;BME280;11809;56.390;-3.266;2023-04-22T02:47:34;100913.94;;;15.38;52.97
23281;BME280;11809;56.390;-3.266;2023-04-22T02:50:01;100906.00;;;15.38;53.21
23281;BME280;11809;56.390;-3.266;2023-04-22T02:52:28;100901.66;;;15.37;52.86
23281;BME280;11809;56.390;-3.266;2023-04-22T02:54:55;100896.38;;;15.37;53.06
23281;BME280;11809;56.390;-3.266;2023-04-22T02:57:22;100895.50;;;15.37;53.36
23281;BME280;11809;56.390;-3.266;2023-04-22T02:59:49;100888.50;;;15.36;53.12
23281;BME280;11809;56.390;-3.266;2023-04-22T03:02:16;100884.00;;;15.38;53.20
23281;BME280;11809;56.390;-3.266;2023-04-22T03:04:43;100884.00;;;15.38;53.20
23281;BME280;11809;56.390;-3.266;2023-04-22T03:07:10;100876.06;;;15.38;53.24
23281;BME280;11809;56.390;-3.266;2023-04-22T03:09:37;100873.41;;;15.38;52.98
23281;BME280;11809;56.390;-3.266;2023-04-22T03:12:04;100863.75;;;15.37;53.19
23281;BME280;11809;56.390;-3.266;2023-04-22T03:14:31;100865.63;;;15.35;53.11
23281;BME280;11809;56.390;-3.266;2023-04-22T03:16:58;100854.06;;;15.36;53.09
23281;BME280;11809;56.390;-3.266;2023-04-22T03:19:25;100855.97;;;15.34;53.09
23281;BME280;11809;56.390;-3.266;2023-04-22T03:21:52;100852.38;;;15.35;53.03
23281;BME280;11809;56.390;-3.266;2023-04-22T03:24:19;100842.72;;;15.34;53.49
23281;BME280;11809;56.390;-3.266;2023-04-22T03:26:46;100854.06;;;15.36;53.47
23281;BME280;11809;56.390;-3.266;2023-04-22T03:29:13;100842.72;;;15.34;53.26
23281;BME280;11809;56.390;-3.266;2023-04-22T03:31:40;100839.16;;;15.35;53.28
23281;BME280;11809;56.390;-3.266;2023-04-22T03:34:08;100835.75;;;15.33;53.36
23281;BME280;11809;56.390;-3.266;2023-04-22T03:36:35;100832.22;;;15.32;53.31
23281;BME280;11809;56.390;-3.266;2023-04-22T03:39:02;100819.06;;;15.31;53.50
23281;BME280;11809;56.390;-3.266;2023-04-22T03:41:29;100825.16;;;15.33;53.33
23281;BME280;11809;56.390;-3.266;2023-04-22T03:43:56;100820.69;;;15.33;53.40
23281;BME280;11809;56.390;-3.266;2023-04-22T03:46:26;100813.69;;;15.32;53.36
23281;BME280;11809;56.390;-3.266;2023-04-22T03:48:53;100810.28;;;15.30;53.52
23281;BME280;11809;56.390;-3.266;2023-04-22T03:51:21;100807.53;;;15.32;53.38
23281;BME280;11809;56.390;-3.266;2023-04-22T03:53:48;100797.06;;;15.30;53.66
23281;BME280;11809;56.390;-3.266;2023-04-22T03:56:15;100785.78;;;15.27;53.79
23281;BME280;11809;56.390;-3.266;2023-04-22T03:58:41;100784.81;;;15.28;53.47
23281;BME280;11809;56.390;-3.266;2023-04-22T04:01:08;100775.06;;;15.28;53.63
23281;BME280;11809;56.390;-3.266;2023-04-22T04:03:36;100775.06;;;15.28;53.56
23281;BME280;11809;56.390;-3.266;2023-04-22T04:06:03;100767.22;;;15.27;53.69
23281;BME280;11809;56.390;-3.266;2023-04-22T04:08:30;100763.72;;;15.26;53.36
23281;BME280;11809;56.390;-3.266;2023-04-22T04:10:57;100753.91;;;15.28;53.69
23281;BME280;11809;56.390;-3.266;2023-04-22T04:13:24;100760.06;;;15.29;53.61
23281;BME280;11809;56.390;-3.266;2023-04-22T04:15:52;100755.69;;;15.28;53.61
23281;BME280;11809;56.390;-3.266;2023-04-22T04:18:19;100751.25;;;15.28;53.70
23281;BME280;11809;56.390;-3.266;2023-04-22T04:20:47;100749.47;;;15.29;53.47
23281;BME280;11809;56.390;-3.266;2023-04-22T04:23:14;100745.09;;;15.28;53.60
23281;BME280;11809;56.390;-3.266;2023-04-22T04:25:41;100739.78;;;15.28;53.64
23281;BME280;11809;56.390;-3.266;2023-04-22T04:28:09;100742.44;;;15.28;53.72
23281;BME280;11809;56.390;-3.266;2023-04-22T04:30:37;100738.00;;;15.28;53.67
23281;BME280;11809;56.390;-3.266;2023-04-22T04:33:04;100730.06;;;15.28;53.60
23281;BME280;11809;56.390;-3.266;2023-04-22T04:35:33;100727.53;;;15.27;53.61
23281;BME280;11809;56.390;-3.266;2023-04-22T04:38:00;100733.75;;;15.26;53.54
23281;BME280;11809;56.390;-3.266;2023-04-22T04:40:28;100720.44;;;15.27;53.47
23281;BME280;11809;56.390;-3.266;2023-04-22T04:42:55;100721.25;;;15.28;53.62
23281;BME280;11809;56.390;-3.266;2023-04-22T04:45:23;100713.31;;;15.28;53.38
23281;BME280;11809;56.390;-3.266;2023-04-22T04:47:51;100707.19;;;15.27;53.45
23281;BME280;11809;56.390;-3.266;2023-04-22T04:50:21;100696.03;;;15.22;53.81
23281;BME280;11809;56.390;-3.266;2023-04-22T04:52:48;100704.63;;;15.26;53.56
23281;BME280;11809;56.390;-3.266;2023-04-22T04:55:16;100696.69;;;15.26;53.50
23281;BME280;11809;56.390;-3.266;2023-04-22T04:57:43;100690.63;;;15.24;53.58
23281;BME280;11809;56.390;-3.266;2023-04-22T05:00:11;100689.69;;;15.25;53.54
23281;BME280;11809;56.390;-3.266;2023-04-22T05:02:40;100690.63;;;15.24;53.52
23281;BME280;11809;56.390;-3.266;2023-04-22T05:05:08;100684.47;;;15.23;53.53
23281;BME280;11809;56.390;-3.266;2023-04-22T05:07:35;100675.78;;;15.21;53.58
23281;BME280;11809;56.390;-3.266;2023-04-22T05:10:02;100677.56;;;15.21;53.68
23281;BME280;11809;56.390;-3.266;2023-04-22T05:12:29;100679.34;;;15.20;53.79
23281;BME280;11809;56.390;-3.266;2023-04-22T05:14:56;100674.00;;;15.22;53.71
23281;BME280;11809;56.390;-3.266;2023-04-22T05:17:23;100668.69;;;15.22;53.86
23281;BME280;11809;56.390;-3.266;2023-04-22T05:19:50;100664.31;;;15.21;53.62
23281;BME280;11809;56.390;-3.266;2023-04-22T05:22:17;100667.09;;;15.19;53.65
23281;BME280;11809;56.390;-3.266;2023-04-22T05:24:44;100669.72;;;15.19;53.93
23281;BME280;11809;56.390;-3.266;2023-04-22T05:27:12;100660.94;;;15.18;53.80
23281;BME280;11809;56.390;-3.266;2023-04-22T05:29:39;100661.84;;;15.17;53.64
23281;BME280;11809;56.390;-3.266;2023-04-22T05:32:06;100666.97;;;15.21;53.88
23281;BME280;11809;56.390;-3.266;2023-04-22T05:34:34;100650.22;;;15.20;53.84
23281;BME280;11809;56.390;-3.266;2023-04-22T05:37:02;100650.06;;;15.23;53.86
23281;BME280;11809;56.390;-3.266;2023-04-22T05:39:29;100646.66;;;15.21;53.98
23281;BME280;11809;56.390;-3.266;2023-04-22T05:41:56;100637.84;;;15.21;53.62
23281;BME280;11809;56.390;-3.266;2023-04-22T05:44:23;100626.34;;;15.22;53.91
23281;BME280;11809;56.390;-3.266;2023-04-22T05:46:50;100625.38;;;15.23;53.66
23281;BME280;11809;56.390;-3.266;2023-04-22T05:49:17;100621.03;;;15.22;53.70
23281;BME280;11809;56.390;-3.266;2023-04-22T05:51:44;100621.03;;;15.22;53.70
23281;BME280;11809;56.390;-3.266;2023-04-22T05:54:11;100618.28;;;15.23;53.94
23281;BME280;11809;56.390;-3.266;2023-04-22T05:56:38;100621.03;;;15.22;53.59
23281;BME280;11809;56.390;-3.266;2023-04-22T05:59:05;100621.78;;;15.24;53.92
23281;BME280;11809;56.390;-3.266;2023-04-22T06:01:32;100623.59;;;15.23;53.93
23281;BME280;11809;56.390;-3.266;2023-04-22T06:03:59;100630.53;;;15.40;54.47
23281;BME280;11809;56.390;-3.266;2023-04-22T06:06:29;100633.59;;;15.48;54.11
23281;BME280;11809;56.390;-3.266;2023-04-22T06:08:56;100622.81;;;15.51;54.63
23281;BME280;11809;56.390;-3.266;2023-04-22T06:11:23;100607.38;;;15.57;54.63
23281;BME280;11809;56.390;-3.266;2023-04-22T06:13:50;100608.81;;;15.63;54.37
23281;BME280;11809;56.390;-3.266;2023-04-22T06:16:17;100611.28;;;15.66;54.34
23281;BME280;11809;56.390;-3.266;2023-04-22T06:18:44;100602.59;;;15.64;54.02
23281;BME280;11809;56.390;-3.266;2023-04-22T06:21:11;100595.28;;;15.09;47.82
23281;BME280;11809;56.390;-3.266;2023-04-22T06:23:38;100595.25;;;14.66;45.59
23281;BME280;11809;56.390;-3.266;2023-04-22T06:26:05;100600.03;;;14.59;46.46
23281;BME280;11809;56.390;-3.266;2023-04-22T06:28:32;100600.22;;;14.86;47.65
23281;BME280;11809;56.390;-3.266;2023-04-22T06:31:00;100596.06;;;15.11;49.31
23281;BME280;11809;56.390;-3.266;2023-04-22T06:33:28;100592.50;;;15.27;50.01
23281;BME280;11809;56.390;-3.266;2023-04-22T06:35:55;100592.69;;;15.38;50.75
23281;BME280;11809;56.390;-3.266;2023-04-22T06:38:22;100575.47;;;15.45;50.94
23281;BME280;11809;56.390;-3.266;2023-04-22T06:40:49;100575.22;;;15.49;51.07
23281;BME280;11809;56.390;-3.266;2023-04-22T06:43:16;100560.75;;;15.55;51.52
23281;BME280;11809;56.390;-3.266;2023-04-22T06:45:43;100558.66;;;15.60;51.54
23281;BME280;11809;56.390;-3.266;2023-04-22T06:48:10;100554.34;;;15.59;51.29
23281;BME280;11809;56.390;-3.266;2023-04-22T06:50:37;100553.19;;;15.63;51.41
23281;BME280;11809;56.390;-3.266;2023-04-22T06:53:05;100548.56;;;15.66;51.72
23281;BME280;11809;56.390;-3.266;2023-04-22T06:55:32;100540.50;;;15.68;51.84
23281;BME280;11809;56.390;-3.266;2023-04-22T06:57:59;100536.06;;;15.68;52.00
23281;BME280;11809;56.390;-3.266;2023-04-22T07:00:26;100534.25;;;15.69;52.34
23281;BME280;11809;56.390;-3.266;2023-04-22T07:02:54;100531.50;;;15.70;52.46
23281;BME280;11809;56.390;-3.266;2023-04-22T07:05:21;100530.28;;;15.76;52.62
23281;BME280;11809;56.390;-3.266;2023-04-22T07:07:48;100533.59;;;15.80;52.81
23281;BME280;11809;56.390;-3.266;2023-04-22T07:10:15;100526.56;;;15.78;52.94
23281;BME280;11809;56.390;-3.266;2023-04-22T07:12:42;100528.94;;;15.83;53.08
23281;BME280;11809;56.390;-3.266;2023-04-22T07:15:10;100524.41;;;15.85;53.17
23281;BME280;11809;56.390;-3.266;2023-04-22T07:17:37;100526.84;;;15.88;52.90
23281;BME280;11809;56.390;-3.266;2023-04-22T07:20:05;100526.66;;;15.91;53.10
23281;BME280;11809;56.390;-3.266;2023-04-22T07:22:32;100510.66;;;15.93;52.73
23281;BME280;11809;56.390;-3.266;2023-04-22T07:24:59;100505.25;;;15.94;52.83
23281;BME280;11809;56.390;-3.266;2023-04-22T07:27:27;100508.66;;;15.96;52.75
23281;BME280;11809;56.390;-3.266;2023-04-22T07:29:54;100504.09;;;15.98;52.57
23281;BME280;11809;56.390;-3.266;2023-04-22T07:32:21;100498.63;;;16.01;52.89
23281;BME280;11809;56.390;-3.266;2023-04-22T07:34:48;100483.66;;;16.00;52.75
23281;BME280;11809;56.390;-3.266;2023-04-22T07:37:15;100487.03;;;16.02;52.48
23281;BME280;11809;56.390;-3.266;2023-04-22T07:39:42;100479.88;;;16.04;52.38
23281;BME280;11809;56.390;-3.266;2023-04-22T07:42:09;100477.97;;;16.06;52.68
23281;BME280;11809;56.390;-3.266;2023-04-22T07:44:37;100468.06;;;15.96;49.62
23281;BME280;11809;56.390;-3.266;2023-04-22T07:47:05;100470.00;;;15.80;47.35
23281;BME280;11809;56.390;-3.266;2023-04-22T07:49:36;100478.44;;;15.72;46.23
23281;BME280;11809;56.390;-3.266;2023-04-22T07:52:04;100474.69;;;15.62;45.09
23281;BME280;11809;56.390;-3.266;2023-04-22T07:54:31;100462.56;;;15.58;44.71
23281;BME280;11809;56.390;-3.266;2023-04-22T07:56:58;100452.91;;;15.57;44.84
23281;BME280;11809;56.390;-3.266;2023-04-22T07:59:25;100456.22;;;15.60;45.00
23281;BME280;11809;56.390;-3.266;2023-04-22T08:01:52;100450.63;;;15.65;44.67
23281;BME280;11809;56.390;-3.266;2023-04-22T08:04:22;100443.44;;;15.67;43.91
23281;BME280;11809;56.390;-3.266;2023-04-22T08:06:50;100432.19;;;15.63;44.27
23281;BME280;11809;56.390;-3.266;2023-04-22T08:09:17;100436.44;;;15.66;43.45
23281;BME280;11809;56.390;-3.266;2023-04-22T08:11:44;100409.09;;;15.65;43.03
23281;BME280;11809;56.390;-3.266;2023-04-22T08:14:12;100424.59;;;15.71;43.93
23281;BME280;11809;56.390;-3.266;2023-04-22T08:16:41;100420.34;;;15.69;42.86
23281;BME280;11809;56.390;-3.266;2023-04-22T08:19:08;100411.66;;;15.67;43.32
23281;BME280;11809;56.390;-3.266;2023-04-22T08:21:35;100403.72;;;15.67;42.50
23281;BME280;11809;56.390;-3.266;2023-04-22T08:24:03;100411.22;;;15.73;42.82
23281;BME280;11809;56.390;-3.266;2023-04-22T08:26:30;100393.47;;;15.75;43.34
23281;BME280;11809;56.390;-3.266;2023-04-22T08:28:58;100412.91;;;15.88;44.62
23281;BME280;11809;56.390;-3.266;2023-04-22T08:31:25;100401.13;;;15.92;43.85
23281;BME280;11809;56.390;-3.266;2023-04-22T08:33:52;100393.94;;;15.94;43.03
23281;BME280;11809;56.390;-3.266;2023-04-22T08:36:19;100389.47;;;15.95;42.69
23281;BME280;11809;56.390;-3.266;2023-04-22T08:38:48;100388.22;;;16.00;43.01
23281;BME280;11809;56.390;-3.266;2023-04-22T08:41:17;100388.22;;;16.00;43.64
23281;BME280;11809;56.390;-3.266;2023-04-22T08:43:45;100377.44;;;16.03;43.19
23281;BME280;11809;56.390;-3.266;2023-04-22T08:46:12;100380.19;;;16.02;42.13
23281;BME280;11809;56.390;-3.266;2023-04-22T08:48:41;100365.97;;;16.03;42.39
23281;BME280;11809;56.390;-3.266;2023-04-22T08:51:08;100366.81;;;16.03;42.20
23281;BME280;11809;56.390;-3.266;2023-04-22T08:53:36;100363.44;;;16.01;41.78
23281;BME280;11809;56.390;-3.266;2023-04-22T08:56:04;100351.78;;;16.04;41.87
23281;BME280;11809;56.390;-3.266;2023-04-22T08:58:33;100349.00;;;16.05;41.67
23281;BME280;11809;56.390;-3.266;2023-04-22T09:01:02;100345.06;;;15.98;41.54
23281;BME280;11809;56.390;-3.266;2023-04-22T09:03:29;100346.28;;;16.07;41.71
23281;BME280;11809;56.390;-3.266;2023-04-22T09:05:58;100337.34;;;16.08;41.62
23281;BME280;11809;56.390;-3.266;2023-04-22T09:08:28;100328.56;;;16.07;41.77
23281;BME280;11809;56.390;-3.266;2023-04-22T09:10:56;100324.63;;;16.13;42.18
23281;BME280;11809;56.390;-3.266;2023-04-22T09:13:25;100314.66;;;16.16;42.13
23281;BME280;11809;56.390;-3.266;2023-04-22T09:15:53;100313.41;;;16.22;41.65
23281;BME280;11809;56.390;-3.266;2023-04-22T09:18:20;100312.56;;;16.21;41.78
23281;BME280;11809;56.390;-3.266;2023-04-22T09:20:48;100304.38;;;16.24;41.69
23281;BME280;11809;56.390;-3.266;2023-04-22T09:23:15;100299.53;;;16.31;41.60
23281;BME280;11809;56.390;-3.266;2023-04-22T09:25:43;100296.34;;;16.38;41.45
23281;BME280;11809;56.390;-3.266;2023-04-22T09:28:12;100284.44;;;16.44;41.55
23281;BME280;11809;56.390;-3.266;2023-04-22T09:30:44;100277.56;;;16.42;41.28
23281;BME280;11809;56.390;-3.266;2023-04-22T09:33:12;100267.78;;;16.42;40.99
23281;BME280;11809;56.390;-3.266;2023-04-22T09:35:41;100277.88;;;16.50;42.35
23281;BME280;11809;56.390;-3.266;2023-04-22T09:38:10;100264.19;;;16.56;42.87
23281;BME280;11809;56.390;-3.266;2023-04-22T09:40:41;100255.25;;;16.69;44.03
23281;BME280;11809;56.390;-3.266;2023-04-22T09:43:09;100259.41;;;16.73;44.34
23281;BME280;11809;56.390;-3.266;2023-04-22T09:45:39;100253.88;;;16.76;44.46
23281;BME280;11809;56.390;-3.266;2023-04-22T09:48:14;100249.16;;;16.80;44.66
23281;BME280;11809;56.390;-3.266;2023-04-22T09:50:48;100258.63;;;16.84;44.88
23281;BME280;11809;56.390;-3.266;2023-04-22T09:53:17;100249.25;;;16.91;45.48
23281;BME280;11809;56.390;-3.266;2023-04-22T09:55:47;100237.34;;;16.96;45.52
23281;BME280;11809;56.390;-3.266;2023-04-22T09:58:16;100236.28;;;16.99;45.54
23281;BME280;11809;56.390;-3.266;2023-04-22T10:00:48;100230.75;;;17.02;45.59
23281;BME280;11809;56.390;-3.266;2023-04-22T10:03:16;100234.13;;;17.04;45.91
23281;BME280;11809;56.390;-3.266;2023-04-22T10:05:45;100239.00;;;17.10;46.45
23281;BME280;11809;56.390;-3.266;2023-04-22T10:08:13;100237.06;;;17.12;46.39
23281;BME280;11809;56.390;-3.266;2023-04-22T10:10:42;100219.19;;;17.14;45.99
23281;BME280;11809;56.390;-3.266;2023-04-22T10:13:09;100218.97;;;17.17;46.02
23281;BME280;11809;56.390;-3.266;2023-04-22T10:15:37;100202.81;;;17.20;46.10
23281;BME280;11809;56.390;-3.266;2023-04-22T10:18:07;100202.59;;;17.23;45.93
23281;BME280;11809;56.390;-3.266;2023-04-22T10:20:38;100205.13;;;17.25;45.39
23281;BME280;11809;56.390;-3.266;2023-04-22T10:23:12;100186.44;;;17.26;45.65
23281;BME280;11809;56.390;-3.266;2023-04-22T10:25:40;100192.63;;;17.38;46.11
23281;BME280;11809;56.390;-3.266;2023-04-22T10:28:09;100190.81;;;17.38;44.13
23281;BME280;11809;56.390;-3.266;2023-04-22T10:30:38;100186.72;;;17.34;43.76
23281;BME280;11809;56.390;-3.266;2023-04-22T10:38:35;100177.41;;;17.29;43.83
23281;BME280;11809;56.390;-3.266;2023-04-22T10:41:02;100172.59;;;17.34;44.32
23281;BME280;11809;56.390;-3.266;2023-04-22T10:43:43;100165.09;;;17.39;44.74
23281;BME280;11809;56.390;-3.266;2023-04-22T10:51:40;100165.38;;;17.47;45.68
23281;BME280;11809;56.390;-3.266;2023-04-22T10:57:09;100167.66;;;17.51;45.96
23281;BME280;11809;56.390;-3.266;2023-04-22T10:59:50;100168.47;;;17.53;46.12
23281;BME280;11809;56.390;-3.266;2023-04-22T11:02:19;100167.88;;;17.61;46.80
23281;BME280;11809;56.390;-3.266;2023-04-22T11:04:47;100169.66;;;17.61;46.28
23281;BME280;11809;56.390;-3.266;2023-04-22T11:10:07;100158.66;;;17.54;45.89
23281;BME280;11809;56.390;-3.266;2023-04-22T11:15:06;100160.56;;;17.52;45.36
23281;BME280;11809;56.390;-3.266;2023-04-22T11:17:35;100150.28;;;17.47;42.82
23281;BME280;11809;56.390;-3.266;2023-04-22T11:20:04;100138.69;;;17.48;42.96
23281;BME280;11809;56.390;-3.266;2023-04-22T11:22:41;100142.53;;;17.44;43.48
23281;BME280;11809;56.390;-3.266;2023-04-22T11:25:09;100130.97;;;17.45;43.65
23281;BME280;11809;56.390;-3.266;2023-04-22T11:27:40;100135.78;;;17.40;43.19
23281;BME280;11809;56.390;-3.266;2023-04-22T11:30:10;100134.34;;;17.47;44.70
23281;BME280;11809;56.390;-3.266;2023-04-22T11:32:40;100122.72;;;17.48;45.16
23281;BME280;11809;56.390;-3.266;2023-04-22T11:35:13;100125.53;;;17.47;43.96
23281;BME280;11809;56.390;-3.266;2023-04-22T11:37:45;100131.69;;;17.47;43.03
23281;BME280;11809;56.390;-3.266;2023-04-22T11:40:16;100122.72;;;17.48;43.29
23281;BME280;11809;56.390;-3.266;2023-04-22T11:42:57;100105.34;;;17.44;43.20
23281;BME280;11809;56.390;-3.266;2023-04-22T11:45:25;100108.97;;;17.43;43.88
23281;BME280;11809;56.390;-3.266;2023-04-22T11:47:52;100115.84;;;17.46;43.40
23281;BME280;11809;56.390;-3.266;2023-04-22T11:50:21;100112.59;;;17.42;44.23
23281;BME280;11809;56.390;-3.266;2023-04-22T11:55:38;100101.97;;;17.42;43.59
23281;BME280;11809;56.390;-3.266;2023-04-22T11:58:15;100103.66;;;17.43;44.23
23281;BME280;11809;56.390;-3.266;2023-04-22T12:03:12;100099.06;;;17.34;43.85
23281;BME280;11809;56.390;-3.266;2023-04-22T12:08:13;100104.72;;;17.41;44.89
23281;BME280;11809;56.390;-3.266;2023-04-22T12:10:46;100067.88;;;17.25;45.10
23281;BME280;11809;56.390;-3.266;2023-04-22T12:13:23;100077.19;;;17.31;44.43
23281;BME280;11809;56.390;-3.266;2023-04-22T12:15:56;100099.41;;;17.41;45.54
23281;BME280;11809;56.390;-3.266;2023-04-22T12:18:31;100096.03;;;17.39;45.10
23281;BME280;11809;56.390;-3.266;2023-04-22T12:21:01;100084.81;;;17.35;45.24
23281;BME280;11809;56.390;-3.266;2023-04-22T12:23:47;100092.66;;;17.37;43.97
23281;BME280;11809;56.390;-3.266;2023-04-22T12:26:16;100094.59;;;17.35;44.61
23281;BME280;11809;56.390;-3.266;2023-04-22T12:28:44;100081.59;;;17.43;44.79
23281;BME280;11809;56.390;-3.266;2023-04-22T12:31:14;100072.53;;;17.45;44.89
23281;BME280;11809;56.390;-3.266;2023-04-22T12:33:43;100059.47;;;17.42;46.67
23281;BME280;11809;56.390;-3.266;2023-04-22T12:36:11;100080.47;;;17.34;45.33
23281;BME280;11809;56.390;-3.266;2023-04-22T12:38:38;100070.34;;;17.39;44.93
23281;BME280;11809;56.390;-3.266;2023-04-22T12:41:06;100064.41;;;17.36;45.28
23281;BME280;11809;56.390;-3.266;2023-04-22T12:43:33;100064.31;;;17.37;46.35
23281;BME280;11809;56.390;-3.266;2023-04-22T12:46:06;100058.38;;;17.34;46.08
23281;BME280;11809;56.390;-3.266;2023-04-22T12:48:35;100064.03;;;17.29;44.79
23281;BME280;11809;56.390;-3.266;2023-04-22T12:51:05;100049.78;;;17.30;44.51
23281;BME280;11809;56.390;-3.266;2023-04-22T12:53:32;100044.00;;;17.36;46.02
23281;BME280;11809;56.390;-3.266;2023-04-22T12:56:00;100044.84;;;17.37;46.67
23281;BME280;11809;56.390;-3.266;2023-04-22T12:58:27;100044.00;;;17.36;45.67
23281;BME280;11809;56.390;-3.266;2023-04-22T13:00:54;100046.78;;;17.35;45.04
23281;BME280;11809;56.390;-3.266;2023-04-22T13:03:21;100052.47;;;17.41;46.42
23281;BME280;11809;56.390;-3.266;2023-04-22T13:05:48;100039.91;;;17.43;45.67
23281;BME280;11809;56.390;-3.266;2023-04-22T13:08:16;100044.63;;;17.40;45.15
23281;BME280;11809;56.390;-3.266;2023-04-22T13:10:43;100044.00;;;17.36;45.54